sensor_id;sensor_type;location;lat;lon;timestamp;P1;durP1;ratioP1;P2;durP2;ratioP2
29574;SDS011;16507;51.046;6.406;2022-12-20T00:00:55;0.85;;;0.80;;
29574;SDS011;16507;51.046;6.406;2022-12-20T00:03:21;2.13;;;0.90;;
29574;SDS011;16507;51.046;6.406;2022-12-20T00:05:47;0.90;;;0.60;;
29574;SDS011;16507;51.046;6.406;2022-12-20T00:08:13;1.17;;;0.70;;
29574;SDS011;16507;51.046;6.406;2022-12-20T00:10:42;0.73;;;0.73;;
29574;SDS011;16507;51.046;6.406;2022-12-20T00:13:09;1.98;;;0.70;;
29574;SDS011;16507;51.046;6.406;2022-12-20T00:15:36;1.38;;;0.75;;
29574;SDS011;16507;51.046;6.406;2022-12-20T00:18:02;1.25;;;0.80;;
29574;SDS011;16507;51.046;6.406;2022-12-20T00:20:28;0.68;;;0.63;;
29574;SDS011;16507;51.046;6.406;2022-12-20T00:22:54;1.25;;;0.70;;
29574;SDS011;16507;51.046;6.406;2022-12-20T00:25:20;1.10;;;0.80;;
29574;SDS011;16507;51.046;6.406;2022-12-20T00:27:46;7.60;;;1.73;;
29574;SDS011;16507;51.046;6.406;2022-12-20T00:30:12;0.88;;;0.73;;
29574;SDS011;16507;51.046;6.406;2022-12-20T00:32:39;2.70;;;0.73;;
29574;SDS011;16507;51.046;6.406;2022-12-20T00:35:05;0.98;;;0.80;;
29574;SDS011;16507;51.046;6.406;2022-12-20T00:37:31;1.27;;;0.80;;
29574;SDS011;16507;51.046;6.406;2022-12-20T00:39:56;3.28;;;0.70;;
29574;SDS011;16507;51.046;6.406;2022-12-20T00:42:22;1.10;;;0.80;;
29574;SDS011;16507;51.046;6.406;2022-12-20T00:44:48;3.13;;;0.93;;
29574;SDS011;16507;51.046;6.406;2022-12-20T00:47:13;1.67;;;0.80;;
29574;SDS011;16507;51.046;6.406;2022-12-20T00:49:39;4.65;;;0.90;;
29574;SDS011;16507;51.046;6.406;2022-12-20T00:52:05;1.55;;;0.70;;
29574;SDS011;16507;51.046;6.406;2022-12-20T00:54:31;2.70;;;0.80;;
29574;SDS011;16507;51.046;6.406;2022-12-20T00:56:56;2.08;;;0.60;;
29574;SDS011;16507;51.046;6.406;2022-12-20T00:59:22;1.00;;;0.70;;
29574;SDS011;16507;51.046;6.406;2022-12-20T01:01:47;1.55;;;0.90;;
29574;SDS011;16507;51.046;6.406;2022-12-20T01:04:14;0.90;;;0.80;;
29574;SDS011;16507;51.046;6.406;2022-12-20T01:06:39;2.40;;;0.93;;
29574;SDS011;16507;51.046;6.406;2022-12-20T01:09:05;2.25;;;0.90;;
29574;SDS011;16507;51.046;6.406;2022-12-20T01:11:32;1.88;;;0.70;;
29574;SDS011;16507;51.046;6.406;2022-12-20T01:14:00;1.85;;;1.10;;
29574;SDS011;16507;51.046;6.406;2022-12-20T01:16:30;1.10;;;0.90;;
29574;SDS011;16507;51.046;6.406;2022-12-20T01:18:59;1.02;;;0.82;;
29574;SDS011;16507;51.046;6.406;2022-12-20T01:21:25;2.13;;;1.17;;
29574;SDS011;16507;51.046;6.406;2022-12-20T01:23:52;1.10;;;1.00;;
29574;SDS011;16507;51.046;6.406;2022-12-20T01:26:18;1.10;;;1.00;;
29574;SDS011;16507;51.046;6.406;2022-12-20T01:28:46;3.00;;;1.20;;
29574;SDS011;16507;51.046;6.406;2022-12-20T01:31:14;2.65;;;0.95;;
29574;SDS011;16507;51.046;6.406;2022-12-20T01:33:42;3.45;;;1.17;;
29574;SDS011;16507;51.046;6.406;2022-12-20T01:36:16;2.40;;;1.33;;
29574;SDS011;16507;51.046;6.406;2022-12-20T01:38:43;3.13;;;1.42;;
29574;SDS011;16507;51.046;6.406;2022-12-20T01:41:28;1.05;;;0.90;;
29574;SDS011;16507;51.046;6.406;2022-12-20T01:46:24;2.55;;;1.33;;
29574;SDS011;16507;51.046;6.406;2022-12-20T01:51:17;1.88;;;1.20;;
29574;SDS011;16507;51.046;6.406;2022-12-20T01:53:43;1.45;;;1.02;;
29574;SDS011;16507;51.046;6.406;2022-12-20T01:56:11;1.10;;;1.00;;
29574;SDS011;16507;51.046;6.406;2022-12-20T01:58:36;1.20;;;1.00;;
29574;SDS011;16507;51.046;6.406;2022-12-20T02:01:04;2.72;;;1.13;;
29574;SDS011;16507;51.046;6.406;2022-12-20T02:03:30;3.50;;;1.27;;
29574;SDS011;16507;51.046;6.406;2022-12-20T02:05:56;1.27;;;1.17;;
29574;SDS011;16507;51.046;6.406;2022-12-20T02:08:31;7.15;;;1.50;;
29574;SDS011;16507;51.046;6.406;2022-12-20T02:13:35;2.08;;;1.42;;
29574;SDS011;16507;51.046;6.406;2022-12-20T02:16:02;1.75;;;1.10;;
29574;SDS011;16507;51.046;6.406;2022-12-20T02:18:37;2.00;;;1.10;;
29574;SDS011;16507;51.046;6.406;2022-12-20T02:21:30;11.85;;;1.42;;
29574;SDS011;16507;51.046;6.406;2022-12-20T02:26:42;1.27;;;1.15;;
29574;SDS011;16507;51.046;6.406;2022-12-20T02:34:34;5.65;;;1.35;;
29574;SDS011;16507;51.046;6.406;2022-12-20T02:37:02;1.95;;;1.48;;
29574;SDS011;16507;51.046;6.406;2022-12-20T02:39:28;1.67;;;1.13;;
29574;SDS011;16507;51.046;6.406;2022-12-20T02:42:05;3.60;;;1.80;;
29574;SDS011;16507;51.046;6.406;2022-12-20T02:44:34;2.80;;;1.52;;
29574;SDS011;16507;51.046;6.406;2022-12-20T02:47:32;2.85;;;1.55;;
29574;SDS011;16507;51.046;6.406;2022-12-20T02:50:02;6.55;;;1.73;;
29574;SDS011;16507;51.046;6.406;2022-12-20T02:52:30;2.55;;;1.70;;
29574;SDS011;16507;51.046;6.406;2022-12-20T02:54:57;1.83;;;1.65;;
29574;SDS011;16507;51.046;6.406;2022-12-20T02:57:26;3.20;;;1.77;;
29574;SDS011;16507;51.046;6.406;2022-12-20T03:00:13;2.08;;;1.27;;
29574;SDS011;16507;51.046;6.406;2022-12-20T03:02:43;2.35;;;1.60;;
29574;SDS011;16507;51.046;6.406;2022-12-20T03:05:29;1.58;;;1.40;;
29574;SDS011;16507;51.046;6.406;2022-12-20T03:07:58;2.17;;;1.75;;
29574;SDS011;16507;51.046;6.406;2022-12-20T03:10:24;17.35;;;2.88;;
29574;SDS011;16507;51.046;6.406;2022-12-20T03:12:50;2.83;;;1.83;;
29574;SDS011;16507;51.046;6.406;2022-12-20T03:15:16;5.03;;;1.60;;
29574;SDS011;16507;51.046;6.406;2022-12-20T03:17:41;4.30;;;1.85;;
29574;SDS011;16507;51.046;6.406;2022-12-20T03:20:07;10.05;;;1.85;;
29574;SDS011;16507;51.046;6.406;2022-12-20T03:22:35;6.90;;;1.75;;
29574;SDS011;16507;51.046;6.406;2022-12-20T03:25:01;8.85;;;1.90;;
29574;SDS011;16507;51.046;6.406;2022-12-20T03:27:27;4.38;;;1.63;;
29574;SDS011;16507;51.046;6.406;2022-12-20T03:29:53;8.05;;;1.50;;
29574;SDS011;16507;51.046;6.406;2022-12-20T03:32:19;3.85;;;1.70;;
29574;SDS011;16507;51.046;6.406;2022-12-20T03:34:45;4.32;;;1.50;;
29574;SDS011;16507;51.046;6.406;2022-12-20T03:37:11;5.88;;;1.73;;
29574;SDS011;16507;51.046;6.406;2022-12-20T03:39:37;2.92;;;1.67;;
29574;SDS011;16507;51.046;6.406;2022-12-20T03:42:02;3.40;;;1.50;;
29574;SDS011;16507;51.046;6.406;2022-12-20T03:44:28;6.25;;;1.80;;
29574;SDS011;16507;51.046;6.406;2022-12-20T03:46:54;2.08;;;1.40;;
29574;SDS011;16507;51.046;6.406;2022-12-20T03:49:19;3.00;;;1.55;;
29574;SDS011;16507;51.046;6.406;2022-12-20T03:51:45;2.45;;;1.60;;
29574;SDS011;16507;51.046;6.406;2022-12-20T03:54:11;2.85;;;1.70;;
29574;SDS011;16507;51.046;6.406;2022-12-20T03:56:36;3.50;;;1.60;;
29574;SDS011;16507;51.046;6.406;2022-12-20T03:59:02;2.90;;;1.42;;
29574;SDS011;16507;51.046;6.406;2022-12-20T04:01:28;2.83;;;1.58;;
29574;SDS011;16507;51.046;6.406;2022-12-20T04:03:54;2.95;;;1.70;;
29574;SDS011;16507;51.046;6.406;2022-12-20T04:06:20;1.52;;;1.08;;
29574;SDS011;16507;51.046;6.406;2022-12-20T04:08:47;2.03;;;1.60;;
29574;SDS011;16507;51.046;6.406;2022-12-20T04:11:13;4.97;;;1.58;;
29574;SDS011;16507;51.046;6.406;2022-12-20T04:13:47;2.13;;;1.63;;
29574;SDS011;16507;51.046;6.406;2022-12-20T04:16:14;2.00;;;1.80;;
29574;SDS011;16507;51.046;6.406;2022-12-20T04:18:42;9.70;;;2.40;;
29574;SDS011;16507;51.046;6.406;2022-12-20T04:21:08;4.15;;;1.75;;
29574;SDS011;16507;51.046;6.406;2022-12-20T04:23:34;5.35;;;1.77;;
29574;SDS011;16507;51.046;6.406;2022-12-20T04:26:02;4.07;;;1.95;;
29574;SDS011;16507;51.046;6.406;2022-12-20T04:28:29;2.95;;;1.42;;
29574;SDS011;16507;51.046;6.406;2022-12-20T04:30:56;2.08;;;1.55;;
29574;SDS011;16507;51.046;6.406;2022-12-20T04:33:22;7.93;;;2.05;;
29574;SDS011;16507;51.046;6.406;2022-12-20T04:35:48;3.35;;;2.67;;
29574;SDS011;16507;51.046;6.406;2022-12-20T04:38:14;5.40;;;3.10;;
29574;SDS011;16507;51.046;6.406;2022-12-20T04:40:40;4.30;;;3.58;;
29574;SDS011;16507;51.046;6.406;2022-12-20T04:43:06;3.85;;;3.30;;
29574;SDS011;16507;51.046;6.406;2022-12-20T04:45:32;5.15;;;3.60;;
29574;SDS011;16507;51.046;6.406;2022-12-20T04:47:58;4.35;;;3.33;;
29574;SDS011;16507;51.046;6.406;2022-12-20T04:50:23;2.80;;;2.60;;
29574;SDS011;16507;51.046;6.406;2022-12-20T04:52:49;3.95;;;2.97;;
29574;SDS011;16507;51.046;6.406;2022-12-20T04:55:37;4.50;;;2.75;;
29574;SDS011;16507;51.046;6.406;2022-12-20T04:58:04;2.65;;;2.40;;
29574;SDS011;16507;51.046;6.406;2022-12-20T05:00:31;2.92;;;2.50;;
29574;SDS011;16507;51.046;6.406;2022-12-20T05:02:57;5.70;;;1.83;;
29574;SDS011;16507;51.046;6.406;2022-12-20T05:05:23;4.38;;;2.33;;
29574;SDS011;16507;51.046;6.406;2022-12-20T05:07:49;3.40;;;2.35;;
29574;SDS011;16507;51.046;6.406;2022-12-20T05:10:16;4.65;;;1.98;;
29574;SDS011;16507;51.046;6.406;2022-12-20T05:12:42;3.70;;;1.60;;
29574;SDS011;16507;51.046;6.406;2022-12-20T05:15:07;2.63;;;1.70;;
29574;SDS011;16507;51.046;6.406;2022-12-20T05:17:33;3.72;;;1.80;;
29574;SDS011;16507;51.046;6.406;2022-12-20T05:19:59;4.25;;;2.05;;
29574;SDS011;16507;51.046;6.406;2022-12-20T05:22:25;6.78;;;1.70;;
29574;SDS011;16507;51.046;6.406;2022-12-20T05:25:09;3.55;;;1.88;;
29574;SDS011;16507;51.046;6.406;2022-12-20T05:27:54;3.83;;;2.00;;
29574;SDS011;16507;51.046;6.406;2022-12-20T05:30:20;3.58;;;2.03;;
29574;SDS011;16507;51.046;6.406;2022-12-20T05:32:46;11.90;;;1.88;;
29574;SDS011;16507;51.046;6.406;2022-12-20T05:35:12;2.03;;;1.50;;
29574;SDS011;16507;51.046;6.406;2022-12-20T05:37:38;6.85;;;2.22;;
29574;SDS011;16507;51.046;6.406;2022-12-20T05:40:04;6.65;;;1.77;;
29574;SDS011;16507;51.046;6.406;2022-12-20T05:42:30;5.18;;;1.95;;
29574;SDS011;16507;51.046;6.406;2022-12-20T05:44:56;10.50;;;1.80;;
29574;SDS011;16507;51.046;6.406;2022-12-20T05:47:21;5.97;;;1.73;;
29574;SDS011;16507;51.046;6.406;2022-12-20T05:49:47;5.07;;;1.80;;
29574;SDS011;16507;51.046;6.406;2022-12-20T05:52:13;11.98;;;2.25;;
29574;SDS011;16507;51.046;6.406;2022-12-20T05:54:38;9.70;;;1.70;;
29574;SDS011;16507;51.046;6.406;2022-12-20T05:57:04;5.35;;;1.75;;
29574;SDS011;16507;51.046;6.406;2022-12-20T05:59:29;10.40;;;1.52;;
29574;SDS011;16507;51.046;6.406;2022-12-20T06:01:55;4.70;;;1.45;;
29574;SDS011;16507;51.046;6.406;2022-12-20T06:04:20;2.25;;;1.40;;
29574;SDS011;16507;51.046;6.406;2022-12-20T06:06:46;11.75;;;2.10;;
29574;SDS011;16507;51.046;6.406;2022-12-20T06:09:11;6.00;;;1.63;;
29574;SDS011;16507;51.046;6.406;2022-12-20T06:11:37;3.33;;;1.80;;
29574;SDS011;16507;51.046;6.406;2022-12-20T06:14:03;6.47;;;1.70;;
29574;SDS011;16507;51.046;6.406;2022-12-20T06:16:28;7.07;;;1.60;;
29574;SDS011;16507;51.046;6.406;2022-12-20T06:18:55;11.85;;;2.03;;
29574;SDS011;16507;51.046;6.406;2022-12-20T06:21:21;8.90;;;2.03;;
29574;SDS011;16507;51.046;6.406;2022-12-20T06:23:47;8.05;;;1.70;;
29574;SDS011;16507;51.046;6.406;2022-12-20T06:26:13;4.75;;;2.22;;
29574;SDS011;16507;51.046;6.406;2022-12-20T06:28:39;8.82;;;1.83;;
29574;SDS011;16507;51.046;6.406;2022-12-20T06:31:07;4.70;;;1.80;;
29574;SDS011;16507;51.046;6.406;2022-12-20T06:33:33;6.38;;;1.63;;
29574;SDS011;16507;51.046;6.406;2022-12-20T06:35:59;6.25;;;1.90;;
29574;SDS011;16507;51.046;6.406;2022-12-20T06:38:25;12.90;;;2.08;;
29574;SDS011;16507;51.046;6.406;2022-12-20T06:40:50;6.90;;;1.83;;
29574;SDS011;16507;51.046;6.406;2022-12-20T06:43:16;7.97;;;1.90;;
29574;SDS011;16507;51.046;6.406;2022-12-20T06:45:42;4.38;;;2.13;;
29574;SDS011;16507;51.046;6.406;2022-12-20T06:48:08;15.07;;;2.45;;
29574;SDS011;16507;51.046;6.406;2022-12-20T06:50:33;9.38;;;2.33;;
29574;SDS011;16507;51.046;6.406;2022-12-20T06:52:59;3.22;;;1.75;;
29574;SDS011;16507;51.046;6.406;2022-12-20T06:55:25;3.75;;;1.90;;
29574;SDS011;16507;51.046;6.406;2022-12-20T06:57:50;8.15;;;1.95;;
29574;SDS011;16507;51.046;6.406;2022-12-20T07:00:16;4.60;;;1.80;;
29574;SDS011;16507;51.046;6.406;2022-12-20T07:02:42;4.82;;;2.45;;
29574;SDS011;16507;51.046;6.406;2022-12-20T07:05:09;12.27;;;3.15;;
29574;SDS011;16507;51.046;6.406;2022-12-20T07:07:35;8.75;;;3.05;;
29574;SDS011;16507;51.046;6.406;2022-12-20T07:10:01;8.43;;;1.90;;
29574;SDS011;16507;51.046;6.406;2022-12-20T07:12:27;5.82;;;1.95;;
29574;SDS011;16507;51.046;6.406;2022-12-20T07:14:53;10.38;;;1.85;;
29574;SDS011;16507;51.046;6.406;2022-12-20T07:17:18;3.00;;;1.40;;
29574;SDS011;16507;51.046;6.406;2022-12-20T07:19:44;12.15;;;2.03;;
29574;SDS011;16507;51.046;6.406;2022-12-20T07:22:10;6.28;;;1.42;;
29574;SDS011;16507;51.046;6.406;2022-12-20T07:24:35;3.55;;;1.60;;
29574;SDS011;16507;51.046;6.406;2022-12-20T07:27:01;8.23;;;1.83;;
29574;SDS011;16507;51.046;6.406;2022-12-20T07:29:27;7.15;;;1.88;;
29574;SDS011;16507;51.046;6.406;2022-12-20T07:31:52;2.00;;;1.23;;
29574;SDS011;16507;51.046;6.406;2022-12-20T07:34:18;2.85;;;1.20;;
29574;SDS011;16507;51.046;6.406;2022-12-20T07:36:44;4.50;;;1.00;;
29574;SDS011;16507;51.046;6.406;2022-12-20T07:39:10;4.90;;;1.00;;
29574;SDS011;16507;51.046;6.406;2022-12-20T07:41:35;6.03;;;1.08;;
29574;SDS011;16507;51.046;6.406;2022-12-20T07:44:01;6.55;;;1.17;;
29574;SDS011;16507;51.046;6.406;2022-12-20T07:46:27;7.35;;;1.20;;
29574;SDS011;16507;51.046;6.406;2022-12-20T07:48:52;8.00;;;1.52;;
29574;SDS011;16507;51.046;6.406;2022-12-20T07:51:20;10.82;;;1.67;;
29574;SDS011;16507;51.046;6.406;2022-12-20T07:53:57;1.45;;;1.27;;
29574;SDS011;16507;51.046;6.406;2022-12-20T07:56:30;10.23;;;2.20;;
29574;SDS011;16507;51.046;6.406;2022-12-20T07:58:59;8.88;;;1.58;;
29574;SDS011;16507;51.046;6.406;2022-12-20T08:01:25;4.38;;;1.52;;
29574;SDS011;16507;51.046;6.406;2022-12-20T08:03:56;8.00;;;1.40;;
29574;SDS011;16507;51.046;6.406;2022-12-20T08:06:26;5.10;;;1.50;;
29574;SDS011;16507;51.046;6.406;2022-12-20T08:08:53;6.03;;;1.73;;
29574;SDS011;16507;51.046;6.406;2022-12-20T08:11:22;6.10;;;1.40;;
29574;SDS011;16507;51.046;6.406;2022-12-20T08:13:49;6.82;;;1.50;;
29574;SDS011;16507;51.046;6.406;2022-12-20T08:16:16;3.47;;;1.30;;
29574;SDS011;16507;51.046;6.406;2022-12-20T08:18:41;2.88;;;1.10;;
29574;SDS011;16507;51.046;6.406;2022-12-20T08:21:07;7.63;;;1.58;;
29574;SDS011;16507;51.046;6.406;2022-12-20T08:23:34;6.35;;;1.20;;
29574;SDS011;16507;51.046;6.406;2022-12-20T08:26:00;4.07;;;1.88;;
29574;SDS011;16507;51.046;6.406;2022-12-20T08:28:26;6.07;;;1.55;;
29574;SDS011;16507;51.046;6.406;2022-12-20T08:30:52;4.90;;;1.55;;
29574;SDS011;16507;51.046;6.406;2022-12-20T08:33:18;6.68;;;1.60;;
29574;SDS011;16507;51.046;6.406;2022-12-20T08:35:44;3.85;;;1.20;;
29574;SDS011;16507;51.046;6.406;2022-12-20T08:38:09;9.20;;;1.58;;
29574;SDS011;16507;51.046;6.406;2022-12-20T08:40:35;15.80;;;1.92;;
29574;SDS011;16507;51.046;6.406;2022-12-20T08:43:00;3.55;;;1.60;;
29574;SDS011;16507;51.046;6.406;2022-12-20T08:45:26;3.25;;;1.10;;
29574;SDS011;16507;51.046;6.406;2022-12-20T08:47:52;3.45;;;1.15;;
29574;SDS011;16507;51.046;6.406;2022-12-20T08:50:18;2.03;;;0.95;;
29574;SDS011;16507;51.046;6.406;2022-12-20T08:52:44;9.93;;;1.10;;
29574;SDS011;16507;51.046;6.406;2022-12-20T08:55:09;1.00;;;0.80;;
29574;SDS011;16507;51.046;6.406;2022-12-20T08:57:35;4.88;;;1.10;;
29574;SDS011;16507;51.046;6.406;2022-12-20T09:00:01;3.15;;;0.90;;
29574;SDS011;16507;51.046;6.406;2022-12-20T09:02:27;4.63;;;1.00;;
29574;SDS011;16507;51.046;6.406;2022-12-20T09:04:53;2.20;;;0.80;;
29574;SDS011;16507;51.046;6.406;2022-12-20T09:07:19;11.85;;;1.20;;
29574;SDS011;16507;51.046;6.406;2022-12-20T09:09:45;4.00;;;0.93;;
29574;SDS011;16507;51.046;6.406;2022-12-20T09:12:10;2.40;;;0.98;;
29574;SDS011;16507;51.046;6.406;2022-12-20T09:14:36;2.90;;;0.95;;
29574;SDS011;16507;51.046;6.406;2022-12-20T09:17:02;0.95;;;0.95;;
29574;SDS011;16507;51.046;6.406;2022-12-20T09:19:27;1.40;;;1.13;;
29574;SDS011;16507;51.046;6.406;2022-12-20T09:21:53;2.38;;;1.00;;
29574;SDS011;16507;51.046;6.406;2022-12-20T09:24:19;2.08;;;1.00;;
29574;SDS011;16507;51.046;6.406;2022-12-20T09:26:45;1.15;;;0.88;;
29574;SDS011;16507;51.046;6.406;2022-12-20T09:29:10;3.95;;;1.90;;
29574;SDS011;16507;51.046;6.406;2022-12-20T09:31:36;10.00;;;2.50;;
29574;SDS011;16507;51.046;6.406;2022-12-20T09:34:01;3.42;;;1.83;;
29574;SDS011;16507;51.046;6.406;2022-12-20T09:36:28;6.60;;;1.27;;
29574;SDS011;16507;51.046;6.406;2022-12-20T09:38:54;1.83;;;1.30;;
29574;SDS011;16507;51.046;6.406;2022-12-20T09:41:34;3.75;;;1.13;;
29574;SDS011;16507;51.046;6.406;2022-12-20T09:44:23;5.03;;;2.60;;
29574;SDS011;16507;51.046;6.406;2022-12-20T09:46:57;1.60;;;1.50;;
29574;SDS011;16507;51.046;6.406;2022-12-20T09:49:27;4.63;;;1.45;;
29574;SDS011;16507;51.046;6.406;2022-12-20T09:54:49;4.60;;;3.40;;
29574;SDS011;16507;51.046;6.406;2022-12-20T10:00:15;1.40;;;1.13;;
29574;SDS011;16507;51.046;6.406;2022-12-20T10:02:42;2.13;;;1.50;;
29574;SDS011;16507;51.046;6.406;2022-12-20T10:05:15;12.65;;;2.30;;
29574;SDS011;16507;51.046;6.406;2022-12-20T10:07:54;2.20;;;1.20;;
29574;SDS011;16507;51.046;6.406;2022-12-20T10:13:37;1.73;;;1.13;;
29574;SDS011;16507;51.046;6.406;2022-12-20T10:19:46;3.00;;;1.58;;
29574;SDS011;16507;51.046;6.406;2022-12-20T10:22:13;3.20;;;1.58;;
29574;SDS011;16507;51.046;6.406;2022-12-20T10:24:44;6.00;;;1.77;;
29574;SDS011;16507;51.046;6.406;2022-12-20T10:27:18;3.15;;;1.30;;
29574;SDS011;16507;51.046;6.406;2022-12-20T10:29:45;2.97;;;1.48;;
29574;SDS011;16507;51.046;6.406;2022-12-20T10:32:20;9.63;;;4.68;;
29574;SDS011;16507;51.046;6.406;2022-12-20T10:34:50;3.10;;;1.63;;
29574;SDS011;16507;51.046;6.406;2022-12-20T10:37:21;3.42;;;1.65;;
29574;SDS011;16507;51.046;6.406;2022-12-20T10:39:47;1.80;;;1.00;;
29574;SDS011;16507;51.046;6.406;2022-12-20T10:42:30;8.10;;;1.30;;
29574;SDS011;16507;51.046;6.406;2022-12-20T10:47:40;9.20;;;1.30;;
29574;SDS011;16507;51.046;6.406;2022-12-20T10:50:16;1.77;;;0.93;;
29574;SDS011;16507;51.046;6.406;2022-12-20T10:52:44;3.05;;;0.82;;
29574;SDS011;16507;51.046;6.406;2022-12-20T10:58:05;3.17;;;0.98;;
29574;SDS011;16507;51.046;6.406;2022-12-20T11:01:05;2.38;;;0.80;;
29574;SDS011;16507;51.046;6.406;2022-12-20T11:03:47;0.90;;;0.60;;
29574;SDS011;16507;51.046;6.406;2022-12-20T11:06:20;1.50;;;0.90;;
29574;SDS011;16507;51.046;6.406;2022-12-20T11:08:48;4.32;;;1.10;;
29574;SDS011;16507;51.046;6.406;2022-12-20T11:11:22;5.20;;;1.13;;
29574;SDS011;16507;51.046;6.406;2022-12-20T11:13:49;3.22;;;1.13;;
29574;SDS011;16507;51.046;6.406;2022-12-20T11:16:27;3.70;;;0.90;;
29574;SDS011;16507;51.046;6.406;2022-12-20T11:19:05;1.60;;;1.00;;
29574;SDS011;16507;51.046;6.406;2022-12-20T11:21:59;1.05;;;0.98;;
29574;SDS011;16507;51.046;6.406;2022-12-20T11:24:43;1.70;;;1.60;;
29574;SDS011;16507;51.046;6.406;2022-12-20T11:27:37;4.10;;;2.00;;
29574;SDS011;16507;51.046;6.406;2022-12-20T11:33:01;2.10;;;0.80;;
29574;SDS011;16507;51.046;6.406;2022-12-20T11:47:16;1.55;;;1.05;;
29574;SDS011;16507;51.046;6.406;2022-12-20T11:52:24;2.97;;;1.00;;
29574;SDS011;16507;51.046;6.406;2022-12-20T11:55:57;1.60;;;0.90;;
29574;SDS011;16507;51.046;6.406;2022-12-20T12:00:28;5.40;;;0.90;;
29574;SDS011;16507;51.046;6.406;2022-12-20T12:02:58;2.70;;;1.00;;
29574;SDS011;16507;51.046;6.406;2022-12-20T12:05:42;1.00;;;0.90;;
29574;SDS011;16507;51.046;6.406;2022-12-20T12:08:12;2.17;;;0.95;;
29574;SDS011;16507;51.046;6.406;2022-12-20T12:13:22;4.28;;;1.00;;
29574;SDS011;16507;51.046;6.406;2022-12-20T12:18:34;3.33;;;1.25;;
29574;SDS011;16507;51.046;6.406;2022-12-20T12:26:38;1.52;;;1.05;;
29574;SDS011;16507;51.046;6.406;2022-12-20T12:31:43;4.10;;;1.00;;
29574;SDS011;16507;51.046;6.406;2022-12-20T12:44:53;2.03;;;0.95;;
29574;SDS011;16507;51.046;6.406;2022-12-20T12:47:55;1.88;;;1.20;;
29574;SDS011;16507;51.046;6.406;2022-12-20T12:50:37;3.83;;;2.85;;
29574;SDS011;16507;51.046;6.406;2022-12-20T12:53:11;13.63;;;3.85;;
29574;SDS011;16507;51.046;6.406;2022-12-20T12:55:45;2.90;;;2.45;;
29574;SDS011;16507;51.046;6.406;2022-12-20T13:03:16;2.47;;;2.10;;
29574;SDS011;16507;51.046;6.406;2022-12-20T13:11:39;1.65;;;1.55;;
29574;SDS011;16507;51.046;6.406;2022-12-20T13:16:48;2.60;;;1.55;;
29574;SDS011;16507;51.046;6.406;2022-12-20T13:19:15;1.95;;;1.65;;
29574;SDS011;16507;51.046;6.406;2022-12-20T13:45:47;1.48;;;1.13;;
29574;SDS011;16507;51.046;6.406;2022-12-20T13:48:14;2.83;;;1.35;;
29574;SDS011;16507;51.046;6.406;2022-12-20T13:50:46;3.50;;;1.10;;
29574;SDS011;16507;51.046;6.406;2022-12-20T13:53:17;4.82;;;1.50;;
29574;SDS011;16507;51.046;6.406;2022-12-20T13:55:44;3.40;;;1.40;;
29574;SDS011;16507;51.046;6.406;2022-12-20T13:58:32;3.25;;;1.27;;
29574;SDS011;16507;51.046;6.406;2022-12-20T14:01:03;3.15;;;1.10;;
29574;SDS011;16507;51.046;6.406;2022-12-20T14:03:39;3.22;;;1.67;;
29574;SDS011;16507;51.046;6.406;2022-12-20T14:06:08;2.45;;;1.95;;
29574;SDS011;16507;51.046;6.406;2022-12-20T14:08:42;3.78;;;2.38;;
29574;SDS011;16507;51.046;6.406;2022-12-20T14:11:21;2.95;;;1.48;;
29574;SDS011;16507;51.046;6.406;2022-12-20T14:13:54;4.30;;;1.10;;
29574;SDS011;16507;51.046;6.406;2022-12-20T14:16:21;2.92;;;1.20;;
29574;SDS011;16507;51.046;6.406;2022-12-20T14:18:50;12.32;;;2.35;;
29574;SDS011;16507;51.046;6.406;2022-12-20T14:21:22;11.10;;;4.72;;
29574;SDS011;16507;51.046;6.406;2022-12-20T14:23:49;5.25;;;2.78;;
29574;SDS011;16507;51.046;6.406;2022-12-20T14:26:19;3.17;;;1.92;;
29574;SDS011;16507;51.046;6.406;2022-12-20T14:28:48;1.83;;;1.35;;
29574;SDS011;16507;51.046;6.406;2022-12-20T14:34:03;4.13;;;1.50;;
29574;SDS011;16507;51.046;6.406;2022-12-20T14:36:29;2.90;;;2.08;;
29574;SDS011;16507;51.046;6.406;2022-12-20T14:38:55;8.38;;;1.45;;
29574;SDS011;16507;51.046;6.406;2022-12-20T14:41:29;4.68;;;1.55;;
29574;SDS011;16507;51.046;6.406;2022-12-20T14:46:28;5.07;;;2.30;;
29574;SDS011;16507;51.046;6.406;2022-12-20T14:52:05;4.68;;;1.65;;
29574;SDS011;16507;51.046;6.406;2022-12-20T14:57:26;6.68;;;1.60;;
29574;SDS011;16507;51.046;6.406;2022-12-20T14:59:58;4.68;;;1.65;;
29574;SDS011;16507;51.046;6.406;2022-12-20T15:02:32;18.88;;;3.28;;
29574;SDS011;16507;51.046;6.406;2022-12-20T15:10:59;13.00;;;2.80;;
29574;SDS011;16507;51.046;6.406;2022-12-20T15:13:29;14.63;;;5.88;;
29574;SDS011;16507;51.046;6.406;2022-12-20T15:15:59;14.93;;;3.63;;
29574;SDS011;16507;51.046;6.406;2022-12-20T15:18:29;35.70;;;3.50;;
29574;SDS011;16507;51.046;6.406;2022-12-20T15:20:59;2.40;;;1.50;;
29574;SDS011;16507;51.046;6.406;2022-12-20T15:23:30;9.80;;;1.85;;
29574;SDS011;16507;51.046;6.406;2022-12-20T15:25:56;2.95;;;1.65;;
29574;SDS011;16507;51.046;6.406;2022-12-20T15:28:23;9.23;;;2.00;;
29574;SDS011;16507;51.046;6.406;2022-12-20T15:30:50;6.88;;;1.88;;
29574;SDS011;16507;51.046;6.406;2022-12-20T15:33:20;3.13;;;1.80;;
29574;SDS011;16507;51.046;6.406;2022-12-20T15:35:49;4.20;;;1.85;;
29574;SDS011;16507;51.046;6.406;2022-12-20T15:38:17;5.90;;;1.95;;
29574;SDS011;16507;51.046;6.406;2022-12-20T15:40:45;5.65;;;2.05;;
29574;SDS011;16507;51.046;6.406;2022-12-20T15:43:13;6.93;;;2.50;;
29574;SDS011;16507;51.046;6.406;2022-12-20T15:45:43;2.22;;;2.00;;
29574;SDS011;16507;51.046;6.406;2022-12-20T15:48:14;9.43;;;2.70;;
29574;SDS011;16507;51.046;6.406;2022-12-20T15:53:54;4.43;;;1.80;;
29574;SDS011;16507;51.046;6.406;2022-12-20T15:56:20;2.55;;;1.73;;
29574;SDS011;16507;51.046;6.406;2022-12-20T15:58:49;4.35;;;1.75;;
29574;SDS011;16507;51.046;6.406;2022-12-20T16:04:18;1.73;;;1.40;;
29574;SDS011;16507;51.046;6.406;2022-12-20T16:06:45;3.13;;;1.40;;
29574;SDS011;16507;51.046;6.406;2022-12-20T16:09:12;2.75;;;1.67;;
29574;SDS011;16507;51.046;6.406;2022-12-20T16:11:38;2.10;;;1.30;;
29574;SDS011;16507;51.046;6.406;2022-12-20T16:14:04;1.80;;;1.65;;
29574;SDS011;16507;51.046;6.406;2022-12-20T16:16:33;5.68;;;1.67;;
29574;SDS011;16507;51.046;6.406;2022-12-20T16:19:00;3.97;;;3.33;;
29574;SDS011;16507;51.046;6.406;2022-12-20T16:21:31;4.32;;;2.15;;
29574;SDS011;16507;51.046;6.406;2022-12-20T16:23:58;3.00;;;1.63;;
29574;SDS011;16507;51.046;6.406;2022-12-20T16:26:24;2.53;;;2.00;;
29574;SDS011;16507;51.046;6.406;2022-12-20T16:28:51;4.78;;;2.45;;
29574;SDS011;16507;51.046;6.406;2022-12-20T16:31:24;6.03;;;3.05;;
29574;SDS011;16507;51.046;6.406;2022-12-20T16:33:55;3.08;;;1.98;;
29574;SDS011;16507;51.046;6.406;2022-12-20T16:36:22;7.88;;;1.58;;
29574;SDS011;16507;51.046;6.406;2022-12-20T16:38:48;4.38;;;1.70;;
29574;SDS011;16507;51.046;6.406;2022-12-20T16:41:18;6.03;;;2.13;;
29574;SDS011;16507;51.046;6.406;2022-12-20T16:43:55;5.78;;;1.75;;
29574;SDS011;16507;51.046;6.406;2022-12-20T16:46:23;3.03;;;1.88;;
29574;SDS011;16507;51.046;6.406;2022-12-20T16:48:51;4.25;;;1.50;;
29574;SDS011;16507;51.046;6.406;2022-12-20T16:53:57;4.25;;;1.70;;
29574;SDS011;16507;51.046;6.406;2022-12-20T16:56:25;4.25;;;1.50;;
29574;SDS011;16507;51.046;6.406;2022-12-20T16:58:51;4.20;;;1.50;;
29574;SDS011;16507;51.046;6.406;2022-12-20T17:01:17;3.35;;;2.78;;
29574;SDS011;16507;51.046;6.406;2022-12-20T17:03:47;5.22;;;3.40;;
29574;SDS011;16507;51.046;6.406;2022-12-20T17:06:13;3.15;;;2.47;;
29574;SDS011;16507;51.046;6.406;2022-12-20T17:08:40;3.85;;;2.55;;
29574;SDS011;16507;51.046;6.406;2022-12-20T17:13:49;6.85;;;2.53;;
29574;SDS011;16507;51.046;6.406;2022-12-20T17:16:16;6.13;;;2.90;;
29574;SDS011;16507;51.046;6.406;2022-12-20T17:18:43;4.05;;;2.35;;